sensor_id;sensor_type;location;lat;lon;timestamp;temperature;humidity
39815;DHT22;25495;45.948;4.568;2022-11-15T00:00:19;11.20;99.90
39815;DHT22;25495;45.948;4.568;2022-11-15T00:02:45;11.20;99.90
39815;DHT22;25495;45.948;4.568;2022-11-15T00:05:11;11.10;99.90
39815;DHT22;25495;45.948;4.568;2022-11-15T00:07:36;11.20;99.90
39815;DHT22;25495;45.948;4.568;2022-11-15T00:10:03;11.20;99.90
39815;DHT22;25495;45.948;4.568;2022-11-15T00:12:29;11.20;99.90
39815;DHT22;25495;45.948;4.568;2022-11-15T00:14:55;11.10;99.90
39815;DHT22;25495;45.948;4.568;2022-11-15T00:17:20;11.00;99.90
39815;DHT22;25495;45.948;4.568;2022-11-15T00:19:46;11.00;99.90
39815;DHT22;25495;45.948;4.568;2022-11-15T00:22:12;11.00;99.90
39815;DHT22;25495;45.948;4.568;2022-11-15T00:24:38;11.00;99.90
39815;DHT22;25495;45.948;4.568;2022-11-15T00:27:03;10.90;99.90
39815;DHT22;25495;45.948;4.568;2022-11-15T00:29:29;11.10;99.90
39815;DHT22;25495;45.948;4.568;2022-11-15T00:31:55;11.00;99.90
39815;DHT22;25495;45.948;4.568;2022-11-15T00:34:21;10.90;99.90
39815;DHT22;25495;45.948;4.568;2022-11-15T00:36:46;10.90;99.90
39815;DHT22;25495;45.948;4.568;2022-11-15T00:39:12;10.90;99.90
39815;DHT22;25495;45.948;4.568;2022-11-15T00:41:38;10.80;99.90
39815;DHT22;25495;45.948;4.568;2022-11-15T00:44:04;10.90;99.90
39815;DHT22;25495;45.948;4.568;2022-11-15T00:46:30;10.90;99.90
39815;DHT22;25495;45.948;4.568;2022-11-15T00:48:55;11.00;99.90
39815;DHT22;25495;45.948;4.568;2022-11-15T00:51:21;11.00;99.90
39815;DHT22;25495;45.948;4.568;2022-11-15T00:53:47;11.10;99.90
39815;DHT22;25495;45.948;4.568;2022-11-15T00:56:13;11.10;99.90
39815;DHT22;25495;45.948;4.568;2022-11-15T00:58:38;11.00;99.90
39815;DHT22;25495;45.948;4.568;2022-11-15T01:01:12;11.10;99.90
39815;DHT22;25495;45.948;4.568;2022-11-15T01:03:39;11.00;99.90
39815;DHT22;25495;45.948;4.568;2022-11-15T01:06:05;11.10;99.90
39815;DHT22;25495;45.948;4.568;2022-11-15T01:08:31;11.00;99.90
39815;DHT22;25495;45.948;4.568;2022-11-15T01:11:05;11.00;99.90
39815;DHT22;25495;45.948;4.568;2022-11-15T01:13:32;11.00;99.90
39815;DHT22;25495;45.948;4.568;2022-11-15T01:15:59;11.00;99.90
39815;DHT22;25495;45.948;4.568;2022-11-15T01:18:30;11.00;99.90
39815;DHT22;25495;45.948;4.568;2022-11-15T01:20:56;10.90;99.90
39815;DHT22;25495;45.948;4.568;2022-11-15T01:23:22;10.90;99.90
39815;DHT22;25495;45.948;4.568;2022-11-15T01:25:48;10.80;99.90
39815;DHT22;25495;45.948;4.568;2022-11-15T01:28:13;10.70;99.90
39815;DHT22;25495;45.948;4.568;2022-11-15T01:30:39;10.80;99.90
39815;DHT22;25495;45.948;4.568;2022-11-15T01:33:05;10.90;99.90
39815;DHT22;25495;45.948;4.568;2022-11-15T01:35:31;10.90;99.90
39815;DHT22;25495;45.948;4.568;2022-11-15T01:37:57;10.90;99.90
39815;DHT22;25495;45.948;4.568;2022-11-15T01:40:22;11.00;99.90
39815;DHT22;25495;45.948;4.568;2022-11-15T01:42:48;11.10;99.90
39815;DHT22;25495;45.948;4.568;2022-11-15T01:45:15;11.10;99.90
39815;DHT22;25495;45.948;4.568;2022-11-15T01:47:46;11.10;99.90
39815;DHT22;25495;45.948;4.568;2022-11-15T01:50:17;11.10;99.90
39815;DHT22;25495;45.948;4.568;2022-11-15T01:52:45;11.10;99.90
39815;DHT22;25495;45.948;4.568;2022-11-15T01:55:11;11.10;99.90
39815;DHT22;25495;45.948;4.568;2022-11-15T01:57:41;11.00;99.90
39815;DHT22;25495;45.948;4.568;2022-11-15T02:00:08;11.00;99.90
39815;DHT22;25495;45.948;4.568;2022-11-15T02:02:36;10.90;99.90
39815;DHT22;25495;45.948;4.568;2022-11-15T02:05:03;11.00;99.90
39815;DHT22;25495;45.948;4.568;2022-11-15T02:07:30;10.90;99.90
39815;DHT22;25495;45.948;4.568;2022-11-15T02:10:02;10.90;99.90
39815;DHT22;25495;45.948;4.568;2022-11-15T02:12:29;11.00;99.90
39815;DHT22;25495;45.948;4.568;2022-11-15T02:14:56;11.00;99.90
39815;DHT22;25495;45.948;4.568;2022-11-15T02:17:33;10.90;99.90
39815;DHT22;25495;45.948;4.568;2022-11-15T02:36:43;10.70;99.90
39815;DHT22;25495;45.948;4.568;2022-11-15T02:39:23;10.70;99.90
39815;DHT22;25495;45.948;4.568;2022-11-15T02:42:03;10.70;99.90
39815;DHT22;25495;45.948;4.568;2022-11-15T02:44:31;10.70;99.90
39815;DHT22;25495;45.948;4.568;2022-11-15T02:47:03;10.50;99.90
39815;DHT22;25495;45.948;4.568;2022-11-15T02:49:52;10.50;99.90
39815;DHT22;25495;45.948;4.568;2022-11-15T02:52:21;10.50;99.90
39815;DHT22;25495;45.948;4.568;2022-11-15T02:54:58;10.40;99.90
39815;DHT22;25495;45.948;4.568;2022-11-15T03:00:12;10.50;99.90
39815;DHT22;25495;45.948;4.568;2022-11-15T03:08:22;10.60;99.90
39815;DHT22;25495;45.948;4.568;2022-11-15T03:11:14;10.60;99.90
39815;DHT22;25495;45.948;4.568;2022-11-15T03:16:37;10.60;99.90
39815;DHT22;25495;45.948;4.568;2022-11-15T03:19:09;10.60;99.90
39815;DHT22;25495;45.948;4.568;2022-11-15T03:21:39;10.60;99.90
39815;DHT22;25495;45.948;4.568;2022-11-15T03:24:07;10.60;99.90
39815;DHT22;25495;45.948;4.568;2022-11-15T03:26:35;10.60;99.90
39815;DHT22;25495;45.948;4.568;2022-11-15T03:29:19;10.50;99.90
39815;DHT22;25495;45.948;4.568;2022-11-15T03:31:53;10.50;99.90
39815;DHT22;25495;45.948;4.568;2022-11-15T03:36:47;10.50;99.90
39815;DHT22;25495;45.948;4.568;2022-11-15T03:39:14;10.50;99.90
39815;DHT22;25495;45.948;4.568;2022-11-15T03:41:45;10.50;99.90
39815;DHT22;25495;45.948;4.568;2022-11-15T03:49:44;10.60;99.90
39815;DHT22;25495;45.948;4.568;2022-11-15T03:52:11;10.60;99.90
39815;DHT22;25495;45.948;4.568;2022-11-15T03:54:46;10.70;99.90
39815;DHT22;25495;45.948;4.568;2022-11-15T03:57:12;10.60;99.90
39815;DHT22;25495;45.948;4.568;2022-11-15T03:59:38;10.60;99.90
39815;DHT22;25495;45.948;4.568;2022-11-15T04:02:04;10.60;99.90
39815;DHT22;25495;45.948;4.568;2022-11-15T04:04:29;10.60;99.90
39815;DHT22;25495;45.948;4.568;2022-11-15T04:06:55;10.60;99.90
39815;DHT22;25495;45.948;4.568;2022-11-15T04:09:21;10.50;99.90
39815;DHT22;25495;45.948;4.568;2022-11-15T04:11:47;10.60;99.90
39815;DHT22;25495;45.948;4.568;2022-11-15T04:14:12;10.50;99.90
39815;DHT22;25495;45.948;4.568;2022-11-15T04:16:38;10.60;99.90
39815;DHT22;25495;45.948;4.568;2022-11-15T04:19:04;10.50;99.90
39815;DHT22;25495;45.948;4.568;2022-11-15T04:21:48;10.60;99.90
39815;DHT22;25495;45.948;4.568;2022-11-15T04:24:33;10.50;99.90
39815;DHT22;25495;45.948;4.568;2022-11-15T04:26:58;10.60;99.90
39815;DHT22;25495;45.948;4.568;2022-11-15T04:29:24;10.60;99.90
39815;DHT22;25495;45.948;4.568;2022-11-15T04:32:04;10.60;99.90
39815;DHT22;25495;45.948;4.568;2022-11-15T04:34:30;10.50;99.90
39815;DHT22;25495;45.948;4.568;2022-11-15T04:36:56;10.50;99.90
39815;DHT22;25495;45.948;4.568;2022-11-15T04:39:38;10.50;99.90
39815;DHT22;25495;45.948;4.568;2022-11-15T04:42:04;10.40;99.90
39815;DHT22;25495;45.948;4.568;2022-11-15T04:44:30;10.40;99.90
39815;DHT22;25495;45.948;4.568;2022-11-15T04:46:56;10.40;99.90
39815;DHT22;25495;45.948;4.568;2022-11-15T04:49:22;10.40;99.90
39815;DHT22;25495;45.948;4.568;2022-11-15T04:51:48;10.40;99.90
39815;DHT22;25495;45.948;4.568;2022-11-15T04:54:13;10.40;99.90
39815;DHT22;25495;45.948;4.568;2022-11-15T04:56:39;10.40;99.90
39815;DHT22;25495;45.948;4.568;2022-11-15T04:59:05;10.40;99.90
39815;DHT22;25495;45.948;4.568;2022-11-15T05:01:31;10.40;99.90
39815;DHT22;25495;45.948;4.568;2022-11-15T05:03:57;10.40;99.90
39815;DHT22;25495;45.948;4.568;2022-11-15T05:06:41;10.40;99.90
39815;DHT22;25495;45.948;4.568;2022-11-15T05:09:07;10.40;99.90
39815;DHT22;25495;45.948;4.568;2022-11-15T05:11:33;10.40;99.90
39815;DHT22;25495;45.948;4.568;2022-11-15T05:13:58;10.40;99.90
39815;DHT22;25495;45.948;4.568;2022-11-15T05:16:24;10.40;99.90
39815;DHT22;25495;45.948;4.568;2022-11-15T05:18:51;10.40;99.90
39815;DHT22;25495;45.948;4.568;2022-11-15T05:21:17;10.40;99.90
39815;DHT22;25495;45.948;4.568;2022-11-15T05:23:43;10.40;99.90
39815;DHT22;25495;45.948;4.568;2022-11-15T05:26:09;10.40;99.90
39815;DHT22;25495;45.948;4.568;2022-11-15T05:28:36;10.40;99.90
39815;DHT22;25495;45.948;4.568;2022-11-15T05:31:11;10.40;99.90
39815;DHT22;25495;45.948;4.568;2022-11-15T05:33:38;10.40;99.90
39815;DHT22;25495;45.948;4.568;2022-11-15T05:36:38;10.40;99.90
39815;DHT22;25495;45.948;4.568;2022-11-15T05:39:06;10.40;99.90
39815;DHT22;25495;45.948;4.568;2022-11-15T05:41:39;10.40;99.90
39815;DHT22;25495;45.948;4.568;2022-11-15T05:44:09;10.40;99.90
39815;DHT22;25495;45.948;4.568;2022-11-15T05:46:36;10.40;99.90
39815;DHT22;25495;45.948;4.568;2022-11-15T05:49:07;10.40;99.90
39815;DHT22;25495;45.948;4.568;2022-11-15T05:51:35;10.40;99.90
39815;DHT22;25495;45.948;4.568;2022-11-15T05:54:01;10.40;99.90
39815;DHT22;25495;45.948;4.568;2022-11-15T05:56:28;10.40;99.90
39815;DHT22;25495;45.948;4.568;2022-11-15T05:58:55;10.40;99.90
39815;DHT22;25495;45.948;4.568;2022-11-15T06:01:23;10.40;99.90
39815;DHT22;25495;45.948;4.568;2022-11-15T06:03:50;10.40;99.90
39815;DHT22;25495;45.948;4.568;2022-11-15T06:06:16;10.40;99.90
39815;DHT22;25495;45.948;4.568;2022-11-15T06:08:41;10.30;99.90
39815;DHT22;25495;45.948;4.568;2022-11-15T06:11:07;10.40;99.90
39815;DHT22;25495;45.948;4.568;2022-11-15T06:13:34;10.30;99.90
39815;DHT22;25495;45.948;4.568;2022-11-15T06:16:00;10.30;99.90
39815;DHT22;25495;45.948;4.568;2022-11-15T06:18:26;10.30;99.90
39815;DHT22;25495;45.948;4.568;2022-11-15T06:20:52;10.30;99.90
39815;DHT22;25495;45.948;4.568;2022-11-15T06:23:18;10.30;99.90
39815;DHT22;25495;45.948;4.568;2022-11-15T06:25:43;10.30;99.90
39815;DHT22;25495;45.948;4.568;2022-11-15T06:28:09;10.30;99.90
39815;DHT22;25495;45.948;4.568;2022-11-15T06:30:35;10.30;99.90
39815;DHT22;25495;45.948;4.568;2022-11-15T06:33:02;10.40;99.90
39815;DHT22;25495;45.948;4.568;2022-11-15T06:35:29;10.40;99.90
39815;DHT22;25495;45.948;4.568;2022-11-15T06:37:56;10.40;99.90
39815;DHT22;25495;45.948;4.568;2022-11-15T06:40:21;10.30;99.90
39815;DHT22;25495;45.948;4.568;2022-11-15T06:42:47;10.30;99.90
39815;DHT22;25495;45.948;4.568;2022-11-15T06:45:13;10.40;99.90
39815;DHT22;25495;45.948;4.568;2022-11-15T06:47:48;10.30;99.90
39815;DHT22;25495;45.948;4.568;2022-11-15T06:50:14;10.30;99.90
39815;DHT22;25495;45.948;4.568;2022-11-15T06:52:39;10.30;99.90
39815;DHT22;25495;45.948;4.568;2022-11-15T06:55:06;10.40;99.90
39815;DHT22;25495;45.948;4.568;2022-11-15T06:57:32;10.40;99.90
39815;DHT22;25495;45.948;4.568;2022-11-15T06:59:58;10.40;99.90
39815;DHT22;25495;45.948;4.568;2022-11-15T07:02:23;10.40;99.90
39815;DHT22;25495;45.948;4.568;2022-11-15T07:04:51;10.40;99.90
39815;DHT22;25495;45.948;4.568;2022-11-15T07:07:17;10.40;99.90
39815;DHT22;25495;45.948;4.568;2022-11-15T07:09:43;10.40;99.90
39815;DHT22;25495;45.948;4.568;2022-11-15T07:12:15;10.40;99.90
39815;DHT22;25495;45.948;4.568;2022-11-15T07:14:42;10.50;99.90
39815;DHT22;25495;45.948;4.568;2022-11-15T07:17:08;10.50;99.90
39815;DHT22;25495;45.948;4.568;2022-11-15T07:19:34;10.50;99.90
39815;DHT22;25495;45.948;4.568;2022-11-15T07:22:00;10.50;99.90
39815;DHT22;25495;45.948;4.568;2022-11-15T07:24:26;10.50;99.90
39815;DHT22;25495;45.948;4.568;2022-11-15T07:26:51;10.50;99.90
39815;DHT22;25495;45.948;4.568;2022-11-15T07:29:17;10.60;99.90
39815;DHT22;25495;45.948;4.568;2022-11-15T07:31:43;10.50;99.90
39815;DHT22;25495;45.948;4.568;2022-11-15T07:34:09;10.60;99.90
39815;DHT22;25495;45.948;4.568;2022-11-15T07:36:35;10.60;99.90
39815;DHT22;25495;45.948;4.568;2022-11-15T07:39:01;10.60;99.90
39815;DHT22;25495;45.948;4.568;2022-11-15T07:41:27;10.60;99.90
39815;DHT22;25495;45.948;4.568;2022-11-15T07:43:52;10.50;99.90
39815;DHT22;25495;45.948;4.568;2022-11-15T07:46:18;10.50;99.90
39815;DHT22;25495;45.948;4.568;2022-11-15T07:48:44;10.60;99.90
39815;DHT22;25495;45.948;4.568;2022-11-15T07:51:12;10.60;99.90
39815;DHT22;25495;45.948;4.568;2022-11-15T07:53:41;10.80;99.90
39815;DHT22;25495;45.948;4.568;2022-11-15T07:56:07;11.30;99.90
39815;DHT22;25495;45.948;4.568;2022-11-15T07:58:33;11.20;99.90
39815;DHT22;25495;45.948;4.568;2022-11-15T08:01:06;11.10;99.90
39815;DHT22;25495;45.948;4.568;2022-11-15T08:03:32;11.10;99.90
39815;DHT22;25495;45.948;4.568;2022-11-15T08:05:58;11.20;99.90
39815;DHT22;25495;45.948;4.568;2022-11-15T08:08:24;11.20;99.90
39815;DHT22;25495;45.948;4.568;2022-11-15T08:10:50;11.20;99.90
39815;DHT22;25495;45.948;4.568;2022-11-15T08:13:16;10.90;99.90
39815;DHT22;25495;45.948;4.568;2022-11-15T08:15:42;11.10;99.90
39815;DHT22;25495;45.948;4.568;2022-11-15T08:18:15;11.00;99.90
39815;DHT22;25495;45.948;4.568;2022-11-15T08:20:41;10.90;99.90
39815;DHT22;25495;45.948;4.568;2022-11-15T08:23:09;10.80;99.90
39815;DHT22;25495;45.948;4.568;2022-11-15T08:25:35;10.90;99.90
39815;DHT22;25495;45.948;4.568;2022-11-15T08:28:04;10.80;99.90
39815;DHT22;25495;45.948;4.568;2022-11-15T08:30:33;10.80;99.90
39815;DHT22;25495;45.948;4.568;2022-11-15T08:33:00;11.00;99.90
39815;DHT22;25495;45.948;4.568;2022-11-15T08:35:26;11.00;99.90
39815;DHT22;25495;45.948;4.568;2022-11-15T08:37:53;10.90;99.90
39815;DHT22;25495;45.948;4.568;2022-11-15T08:40:19;10.90;99.90
39815;DHT22;25495;45.948;4.568;2022-11-15T08:42:48;10.90;99.90
39815;DHT22;25495;45.948;4.568;2022-11-15T08:45:14;10.90;99.90
39815;DHT22;25495;45.948;4.568;2022-11-15T08:47:41;11.00;99.90
39815;DHT22;25495;45.948;4.568;2022-11-15T08:50:07;11.00;99.90
39815;DHT22;25495;45.948;4.568;2022-11-15T08:52:33;11.00;99.90
39815;DHT22;25495;45.948;4.568;2022-11-15T08:54:59;11.10;99.90
39815;DHT22;25495;45.948;4.568;2022-11-15T08:57:28;11.10;99.90
39815;DHT22;25495;45.948;4.568;2022-11-15T08:59:55;11.20;99.90
39815;DHT22;25495;45.948;4.568;2022-11-15T09:02:20;11.40;99.90
39815;DHT22;25495;45.948;4.568;2022-11-15T09:04:46;11.40;99.90
39815;DHT22;25495;45.948;4.568;2022-11-15T09:07:13;11.50;99.90
39815;DHT22;25495;45.948;4.568;2022-11-15T09:09:39;11.40;99.90
39815;DHT22;25495;45.948;4.568;2022-11-15T09:12:06;11.50;99.90
39815;DHT22;25495;45.948;4.568;2022-11-15T09:14:32;11.50;99.90
39815;DHT22;25495;45.948;4.568;2022-11-15T09:16:58;11.80;99.90
39815;DHT22;25495;45.948;4.568;2022-11-15T09:19:24;11.60;99.90
39815;DHT22;25495;45.948;4.568;2022-11-15T09:21:50;11.70;99.90
39815;DHT22;25495;45.948;4.568;2022-11-15T09:24:16;11.90;99.90
39815;DHT22;25495;45.948;4.568;2022-11-15T09:26:43;11.90;99.90
39815;DHT22;25495;45.948;4.568;2022-11-15T09:29:09;11.80;99.90
39815;DHT22;25495;45.948;4.568;2022-11-15T09:31:35;11.80;99.90
39815;DHT22;25495;45.948;4.568;2022-11-15T09:34:00;11.80;99.90
39815;DHT22;25495;45.948;4.568;2022-11-15T09:36:26;11.80;99.90
39815;DHT22;25495;45.948;4.568;2022-11-15T09:38:52;12.00;99.90
39815;DHT22;25495;45.948;4.568;2022-11-15T09:44:47;11.90;99.90
39815;DHT22;25495;45.948;4.568;2022-11-15T09:49:57;11.90;99.90
39815;DHT22;25495;45.948;4.568;2022-11-15T09:52:24;11.90;99.90
39815;DHT22;25495;45.948;4.568;2022-11-15T09:54:51;11.90;99.90
39815;DHT22;25495;45.948;4.568;2022-11-15T09:57:37;11.90;99.90
39815;DHT22;25495;45.948;4.568;2022-11-15T10:02:54;12.10;99.90
39815;DHT22;25495;45.948;4.568;2022-11-15T10:05:22;12.10;99.90
39815;DHT22;25495;45.948;4.568;2022-11-15T10:08:03;12.10;99.90
39815;DHT22;25495;45.948;4.568;2022-11-15T10:10:39;12.10;99.90
39815;DHT22;25495;45.948;4.568;2022-11-15T10:13:20;12.10;99.90
39815;DHT22;25495;45.948;4.568;2022-11-15T10:15:48;12.00;99.90
39815;DHT22;25495;45.948;4.568;2022-11-15T10:18:35;12.00;99.90
39815;DHT22;25495;45.948;4.568;2022-11-15T10:21:29;12.10;99.90
39815;DHT22;25495;45.948;4.568;2022-11-15T10:23:58;12.10;99.90
39815;DHT22;25495;45.948;4.568;2022-11-15T10:26:24;12.10;99.90
39815;DHT22;25495;45.948;4.568;2022-11-15T10:28:50;12.20;99.90
39815;DHT22;25495;45.948;4.568;2022-11-15T10:31:28;12.20;99.90
39815;DHT22;25495;45.948;4.568;2022-11-15T10:34:18;12.20;99.90
39815;DHT22;25495;45.948;4.568;2022-11-15T10:36:58;12.20;99.90
39815;DHT22;25495;45.948;4.568;2022-11-15T10:39:24;12.20;99.90
39815;DHT22;25495;45.948;4.568;2022-11-15T10:41:50;12.20;99.90
39815;DHT22;25495;45.948;4.568;2022-11-15T10:46:44;12.30;99.90
39815;DHT22;25495;45.948;4.568;2022-11-15T10:49:17;12.30;99.90
39815;DHT22;25495;45.948;4.568;2022-11-15T10:51:49;12.30;99.90
39815;DHT22;25495;45.948;4.568;2022-11-15T10:54:26;12.30;99.90
39815;DHT22;25495;45.948;4.568;2022-11-15T10:56:57;12.30;99.90
39815;DHT22;25495;45.948;4.568;2022-11-15T10:59:27;12.30;99.90
39815;DHT22;25495;45.948;4.568;2022-11-15T11:01:53;12.30;99.90
39815;DHT22;25495;45.948;4.568;2022-11-15T11:04:22;12.30;99.90
39815;DHT22;25495;45.948;4.568;2022-11-15T11:06:59;12.30;99.90
39815;DHT22;25495;45.948;4.568;2022-11-15T11:09:34;12.30;99.90
39815;DHT22;25495;45.948;4.568;2022-11-15T11:12:02;12.30;99.90
39815;DHT22;25495;45.948;4.568;2022-11-15T11:14:33;12.30;99.90
39815;DHT22;25495;45.948;4.568;2022-11-15T11:20:00;12.40;99.90
39815;DHT22;25495;45.948;4.568;2022-11-15T11:25:25;12.40;99.90
39815;DHT22;25495;45.948;4.568;2022-11-15T11:28:14;12.40;99.90
39815;DHT22;25495;45.948;4.568;2022-11-15T11:34:28;12.60;99.90
39815;DHT22;25495;45.948;4.568;2022-11-15T11:37:34;12.60;99.90
39815;DHT22;25495;45.948;4.568;2022-11-15T11:40:16;12.70;99.90
39815;DHT22;25495;45.948;4.568;2022-11-15T11:45:43;12.80;99.90
39815;DHT22;25495;45.948;4.568;2022-11-15T11:51:31;12.80;99.90
39815;DHT22;25495;45.948;4.568;2022-11-15T11:54:20;12.90;99.90
39815;DHT22;25495;45.948;4.568;2022-11-15T11:56:48;12.80;99.90
39815;DHT22;25495;45.948;4.568;2022-11-15T11:59:56;12.90;99.90
39815;DHT22;25495;45.948;4.568;2022-11-15T12:02:34;12.90;99.90
39815;DHT22;25495;45.948;4.568;2022-11-15T12:05:48;12.90;99.90
39815;DHT22;25495;45.948;4.568;2022-11-15T12:08:01;12.90;99.90
39815;DHT22;25495;45.948;4.568;2022-11-15T12:10:33;12.90;99.90
39815;DHT22;25495;45.948;4.568;2022-11-15T12:13:11;12.90;99.90
39815;DHT22;25495;45.948;4.568;2022-11-15T12:15:53;12.90;99.90
39815;DHT22;25495;45.948;4.568;2022-11-15T12:18:22;12.90;99.90
39815;DHT22;25495;45.948;4.568;2022-11-15T12:20:58;13.00;99.90
39815;DHT22;25495;45.948;4.568;2022-11-15T12:23:31;13.00;99.90
39815;DHT22;25495;45.948;4.568;2022-11-15T12:26:08;13.00;99.90
39815;DHT22;25495;45.948;4.568;2022-11-15T12:28:38;13.00;99.90
39815;DHT22;25495;45.948;4.568;2022-11-15T12:33:43;13.10;99.90
39815;DHT22;25495;45.948;4.568;2022-11-15T12:36:12;13.10;99.90
39815;DHT22;25495;45.948;4.568;2022-11-15T12:39:00;13.10;99.90
39815;DHT22;25495;45.948;4.568;2022-11-15T12:41:31;13.00;99.90
39815;DHT22;25495;45.948;4.568;2022-11-15T12:43:58;13.00;99.90
39815;DHT22;25495;45.948;4.568;2022-11-15T12:48:59;13.10;99.90
39815;DHT22;25495;45.948;4.568;2022-11-15T12:59:57;13.00;99.90
39815;DHT22;25495;45.948;4.568;2022-11-15T13:02:33;12.90;99.90
39815;DHT22;25495;45.948;4.568;2022-11-15T13:08:00;13.10;99.90
39815;DHT22;25495;45.948;4.568;2022-11-15T13:13:00;13.10;99.90
39815;DHT22;25495;45.948;4.568;2022-11-15T13:15:43;13.10;99.90
39815;DHT22;25495;45.948;4.568;2022-11-15T13:20:55;13.00;99.90
39815;DHT22;25495;45.948;4.568;2022-11-15T13:23:21;12.90;99.90
39815;DHT22;25495;45.948;4.568;2022-11-15T13:33:44;13.00;99.90
39815;DHT22;25495;45.948;4.568;2022-11-15T13:36:16;12.90;99.90
39815;DHT22;25495;45.948;4.568;2022-11-15T13:38:44;13.00;99.90
39815;DHT22;25495;45.948;4.568;2022-11-15T13:41:20;13.00;99.90
39815;DHT22;25495;45.948;4.568;2022-11-15T13:43:50;13.00;99.90
39815;DHT22;25495;45.948;4.568;2022-11-15T13:46:36;13.10;99.90
39815;DHT22;25495;45.948;4.568;2022-11-15T13:49:07;13.20;99.90
39815;DHT22;25495;45.948;4.568;2022-11-15T13:51:49;13.20;99.90
39815;DHT22;25495;45.948;4.568;2022-11-15T13:54:30;13.00;99.90
39815;DHT22;25495;45.948;4.568;2022-11-15T13:57:08;13.00;99.90
39815;DHT22;25495;45.948;4.568;2022-11-15T13:59:43;13.10;99.90
39815;DHT22;25495;45.948;4.568;2022-11-15T14:02:21;13.10;99.90
39815;DHT22;25495;45.948;4.568;2022-11-15T14:05:28;13.20;99.90
39815;DHT22;25495;45.948;4.568;2022-11-15T14:08:12;13.20;99.90
39815;DHT22;25495;45.948;4.568;2022-11-15T14:10:47;13.20;99.90
39815;DHT22;25495;45.948;4.568;2022-11-15T14:13:30;13.20;99.90
39815;DHT22;25495;45.948;4.568;2022-11-15T14:16:18;13.10;99.90
39815;DHT22;25495;45.948;4.568;2022-11-15T14:18:47;13.10;99.90
39815;DHT22;25495;45.948;4.568;2022-11-15T14:21:14;13.10;99.90
39815;DHT22;25495;45.948;4.568;2022-11-15T14:23:40;13.20;99.90
39815;DHT22;25495;45.948;4.568;2022-11-15T14:26:10;13.20;99.90
39815;DHT22;25495;45.948;4.568;2022-11-15T14:28:37;13.20;99.90
39815;DHT22;25495;45.948;4.568;2022-11-15T14:31:11;13.20;99.90
39815;DHT22;25495;45.948;4.568;2022-11-15T14:33:39;13.20;99.90
39815;DHT22;25495;45.948;4.568;2022-11-15T14:36:13;13.20;99.90
39815;DHT22;25495;45.948;4.568;2022-11-15T14:38:40;13.10;99.90
39815;DHT22;25495;45.948;4.568;2022-11-15T14:41:17;13.00;99.90
39815;DHT22;25495;45.948;4.568;2022-11-15T14:43:43;13.00;99.90
39815;DHT22;25495;45.948;4.568;2022-11-15T14:46:09;13.10;99.90
39815;DHT22;25495;45.948;4.568;2022-11-15T14:48:35;13.10;99.90
39815;DHT22;25495;45.948;4.568;2022-11-15T14:51:02;13.20;99.90
39815;DHT22;25495;45.948;4.568;2022-11-15T14:53:27;13.20;99.90
39815;DHT22;25495;45.948;4.568;2022-11-15T14:55:53;13.20;99.90
39815;DHT22;25495;45.948;4.568;2022-11-15T14:58:19;13.20;99.90
39815;DHT22;25495;45.948;4.568;2022-11-15T15:00:45;13.20;99.90
39815;DHT22;25495;45.948;4.568;2022-11-15T15:03:11;13.10;99.90
39815;DHT22;25495;45.948;4.568;2022-11-15T15:05:41;13.10;99.90
39815;DHT22;25495;45.948;4.568;2022-11-15T15:08:08;13.10;99.90
39815;DHT22;25495;45.948;4.568;2022-11-15T15:10:37;13.10;99.90
39815;DHT22;25495;45.948;4.568;2022-11-15T15:13:04;13.10;99.90
39815;DHT22;25495;45.948;4.568;2022-11-15T15:15:35;13.00;99.90
39815;DHT22;25495;45.948;4.568;2022-11-15T15:18:02;13.00;99.90
39815;DHT22;25495;45.948;4.568;2022-11-15T15:20:30;13.00;99.90
39815;DHT22;25495;45.948;4.568;2022-11-15T15:22:56;12.90;99.90
39815;DHT22;25495;45.948;4.568;2022-11-15T15:25:28;12.90;99.90
39815;DHT22;25495;45.948;4.568;2022-11-15T15:27:56;12.80;99.90
39815;DHT22;25495;45.948;4.568;2022-11-15T15:30:23;12.80;99.90
39815;DHT22;25495;45.948;4.568;2022-11-15T15:32:49;12.80;99.90
39815;DHT22;25495;45.948;4.568;2022-11-15T15:35:15;12.80;99.90
39815;DHT22;25495;45.948;4.568;2022-11-15T15:37:43;12.90;99.90
39815;DHT22;25495;45.948;4.568;2022-11-15T15:40:21;12.80;99.90
39815;DHT22;25495;45.948;4.568;2022-11-15T15:42:49;12.80;99.90
39815;DHT22;25495;45.948;4.568;2022-11-15T15:45:16;12.80;99.90
39815;DHT22;25495;45.948;4.568;2022-11-15T15:47:43;12.80;99.90
39815;DHT22;25495;45.948;4.568;2022-11-15T15:50:27;12.80;99.90
39815;DHT22;25495;45.948;4.568;2022-11-15T15:52:55;12.80;99.90
39815;DHT22;25495;45.948;4.568;2022-11-15T15:55:22;12.80;99.90
39815;DHT22;25495;45.948;4.568;2022-11-15T15:57:49;12.80;99.90
39815;DHT22;25495;45.948;4.568;2022-11-15T16:00:16;12.80;99.90
39815;DHT22;25495;45.948;4.568;2022-11-15T16:02:42;12.70;99.90
39815;DHT22;25495;45.948;4.568;2022-11-15T16:05:08;12.70;99.90
39815;DHT22;25495;45.948;4.568;2022-11-15T16:07:35;12.70;99.90
39815;DHT22;25495;45.948;4.568;2022-11-15T16:10:02;12.70;99.90
39815;DHT22;25495;45.948;4.568;2022-11-15T16:12:33;12.60;99.90
39815;DHT22;25495;45.948;4.568;2022-11-15T16:14:59;12.60;99.90
39815;DHT22;25495;45.948;4.568;2022-11-15T16:17:32;12.60;99.90
39815;DHT22;25495;45.948;4.568;2022-11-15T16:20:01;12.60;99.90
39815;DHT22;25495;45.948;4.568;2022-11-15T16:22:27;12.60;99.90
39815;DHT22;25495;45.948;4.568;2022-11-15T16:24:56;12.60;99.90
39815;DHT22;25495;45.948;4.568;2022-11-15T16:27:22;12.60;99.90
39815;DHT22;25495;45.948;4.568;2022-11-15T16:29:48;12.60;99.90
39815;DHT22;25495;45.948;4.568;2022-11-15T16:32:15;12.70;99.90
39815;DHT22;25495;45.948;4.568;2022-11-15T16:34:41;12.60;99.90
39815;DHT22;25495;45.948;4.568;2022-11-15T16:37:25;12.60;99.90
39815;DHT22;25495;45.948;4.568;2022-11-15T16:39:51;12.60;99.90
39815;DHT22;25495;45.948;4.568;2022-11-15T16:42:17;12.60;99.90
39815;DHT22;25495;45.948;4.568;2022-11-15T16:44:43;12.60;99.90
39815;DHT22;25495;45.948;4.568;2022-11-15T16:47:17;12.60;99.90
39815;DHT22;25495;45.948;4.568;2022-11-15T16:49:44;12.60;99.90
39815;DHT22;25495;45.948;4.568;2022-11-15T16:52:10;12.60;99.90
39815;DHT22;25495;45.948;4.568;2022-11-15T16:54:36;12.60;99.90
39815;DHT22;25495;45.948;4.568;2022-11-15T16:57:02;12.60;99.90
39815;DHT22;25495;45.948;4.568;2022-11-15T16:59:33;12.70;99.90
39815;DHT22;25495;45.948;4.568;2022-11-15T17:02:00;12.60;99.90
39815;DHT22;25495;45.948;4.568;2022-11-15T17:04:26;12.60;99.90
39815;DHT22;25495;45.948;4.568;2022-11-15T17:06:57;12.60;99.90
39815;DHT22;25495;45.948;4.568;2022-11-15T17:09:23;12.60;99.90
39815;DHT22;25495;45.948;4.568;2022-11-15T17:11:49;12.70;99.90
39815;DHT22;25495;45.948;4.568;2022-11-15T17:14:16;12.70;99.90
39815;DHT22;25495;45.948;4.568;2022-11-15T17:16:42;12.70;99.90